PAUN/UNK METAR and TAF weather

Enter ICAO airport designator
Station Type Date Time Source
PAUN METAR 2021/05/14 12:56 UTC NOAA

PAUN 141256Z AUTO 10011KT 10SM CLR 07/01 A2992 RMK AO2 SLP134 T00670006


Station Type Date Time Source
PAUN Decoded METAR 2021/05/14 12:56 UTC NOAA

Unalakleet, AK, United States (PAUN) 63-53N 160-48W 6M
May 14, 2021 - 08:56 AM EDT / 2021.05.14 1256 UTC
Wind: from the E (100 degrees) at 13 MPH (11 KT):0
Visibility: 10 mile(s):0
Sky conditions: clear
Temperature: 44.1 F (6.7 C)
Dew Point: 33.1 F (0.6 C)
Relative Humidity: 65%
Pressure (altimeter): 29.92 in. Hg (1013 hPa)
ob: PAUN 141256Z AUTO 10011KT 10SM CLR 07/01 A2992 RMK AO2 SLP134 T00670006
cycle: 13

Station Type Date Time Source
PAUN TAF 2021/05/14 12:30 UTC NOAA

TAF PAUN 141128Z 1412/1512 06008KT P6SM SKC
FM142200 04011KT P6SM SKC

Example: see airport list